sensor_id;sensor_type;location;lat;lon;timestamp;P1;durP1;ratioP1;P2;durP2;ratioP2
78344;SDS011;67620;51.134;6.548;2023-06-22T00:01:49;6.72;;;4.60;;
78344;SDS011;67620;51.134;6.548;2023-06-22T00:04:15;6.35;;;5.07;;
78344;SDS011;67620;51.134;6.548;2023-06-22T00:06:41;6.68;;;4.93;;
78344;SDS011;67620;51.134;6.548;2023-06-22T00:09:07;6.22;;;5.50;;
78344;SDS011;67620;51.134;6.548;2023-06-22T00:11:35;6.78;;;4.90;;
78344;SDS011;67620;51.134;6.548;2023-06-22T00:14:01;6.18;;;5.20;;
78344;SDS011;67620;51.134;6.548;2023-06-22T00:16:27;6.20;;;5.00;;
78344;SDS011;67620;51.134;6.548;2023-06-22T00:18:53;6.15;;;5.10;;
78344;SDS011;67620;51.134;6.548;2023-06-22T00:21:19;5.80;;;4.90;;
78344;SDS011;67620;51.134;6.548;2023-06-22T00:23:45;6.38;;;5.20;;
78344;SDS011;67620;51.134;6.548;2023-06-22T00:26:12;7.38;;;5.03;;
78344;SDS011;67620;51.134;6.548;2023-06-22T00:28:38;6.50;;;4.82;;
78344;SDS011;67620;51.134;6.548;2023-06-22T00:31:04;6.65;;;4.70;;
78344;SDS011;67620;51.134;6.548;2023-06-22T00:33:30;10.02;;;5.50;;
78344;SDS011;67620;51.134;6.548;2023-06-22T00:35:56;6.57;;;4.93;;
78344;SDS011;67620;51.134;6.548;2023-06-22T00:38:22;7.18;;;5.00;;
78344;SDS011;67620;51.134;6.548;2023-06-22T00:40:48;6.55;;;5.57;;
78344;SDS011;67620;51.134;6.548;2023-06-22T00:43:14;6.80;;;4.93;;
78344;SDS011;67620;51.134;6.548;2023-06-22T00:45:40;9.15;;;5.35;;
78344;SDS011;67620;51.134;6.548;2023-06-22T00:48:06;8.68;;;5.43;;
78344;SDS011;67620;51.134;6.548;2023-06-22T00:50:33;9.60;;;5.47;;
78344;SDS011;67620;51.134;6.548;2023-06-22T00:53:00;6.60;;;4.85;;
78344;SDS011;67620;51.134;6.548;2023-06-22T00:55:26;9.50;;;5.47;;
78344;SDS011;67620;51.134;6.548;2023-06-22T00:57:52;6.60;;;5.20;;
78344;SDS011;67620;51.134;6.548;2023-06-22T01:00:20;6.82;;;4.95;;
78344;SDS011;67620;51.134;6.548;2023-06-22T01:02:49;8.38;;;5.38;;
78344;SDS011;67620;51.134;6.548;2023-06-22T01:05:20;9.63;;;5.57;;
78344;SDS011;67620;51.134;6.548;2023-06-22T01:13:01;8.25;;;5.05;;
78344;SDS011;67620;51.134;6.548;2023-06-22T01:15:28;9.52;;;4.97;;
78344;SDS011;67620;51.134;6.548;2023-06-22T01:17:54;7.78;;;5.07;;
78344;SDS011;67620;51.134;6.548;2023-06-22T01:20:22;7.32;;;4.82;;
78344;SDS011;67620;51.134;6.548;2023-06-22T01:25:28;8.10;;;4.90;;
78344;SDS011;67620;51.134;6.548;2023-06-22T01:27:59;8.20;;;5.40;;
78344;SDS011;67620;51.134;6.548;2023-06-22T01:32:55;9.30;;;5.88;;
78344;SDS011;67620;51.134;6.548;2023-06-22T01:35:21;7.93;;;5.60;;
78344;SDS011;67620;51.134;6.548;2023-06-22T01:37:47;11.38;;;5.13;;
78344;SDS011;67620;51.134;6.548;2023-06-22T01:40:14;7.22;;;5.00;;
78344;SDS011;67620;51.134;6.548;2023-06-22T01:42:40;6.50;;;5.10;;
78344;SDS011;67620;51.134;6.548;2023-06-22T01:45:08;9.65;;;5.18;;
78344;SDS011;67620;51.134;6.548;2023-06-22T01:47:34;5.63;;;4.75;;
78344;SDS011;67620;51.134;6.548;2023-06-22T01:50:00;7.47;;;5.30;;
78344;SDS011;67620;51.134;6.548;2023-06-22T01:52:26;7.88;;;5.18;;
78344;SDS011;67620;51.134;6.548;2023-06-22T01:54:52;7.43;;;5.22;;
78344;SDS011;67620;51.134;6.548;2023-06-22T01:57:18;9.68;;;5.80;;
78344;SDS011;67620;51.134;6.548;2023-06-22T02:02:11;8.05;;;5.72;;
78344;SDS011;67620;51.134;6.548;2023-06-22T02:04:51;7.63;;;5.03;;
78344;SDS011;67620;51.134;6.548;2023-06-22T02:07:17;7.75;;;5.32;;
78344;SDS011;67620;51.134;6.548;2023-06-22T02:09:46;11.13;;;5.90;;
78344;SDS011;67620;51.134;6.548;2023-06-22T02:12:23;8.73;;;5.45;;
78344;SDS011;67620;51.134;6.548;2023-06-22T02:14:50;11.63;;;5.70;;
78344;SDS011;67620;51.134;6.548;2023-06-22T02:17:17;6.80;;;5.63;;
78344;SDS011;67620;51.134;6.548;2023-06-22T02:19:43;9.10;;;6.25;;
78344;SDS011;67620;51.134;6.548;2023-06-22T02:22:09;8.05;;;6.28;;
78344;SDS011;67620;51.134;6.548;2023-06-22T02:24:37;9.88;;;5.95;;
78344;SDS011;67620;51.134;6.548;2023-06-22T02:27:03;7.75;;;5.38;;
78344;SDS011;67620;51.134;6.548;2023-06-22T02:29:31;7.63;;;6.15;;
78344;SDS011;67620;51.134;6.548;2023-06-22T02:31:57;7.95;;;6.65;;
78344;SDS011;67620;51.134;6.548;2023-06-22T02:34:24;8.40;;;6.57;;
78344;SDS011;67620;51.134;6.548;2023-06-22T02:36:50;8.40;;;6.53;;
78344;SDS011;67620;51.134;6.548;2023-06-22T02:39:18;8.50;;;5.90;;
78344;SDS011;67620;51.134;6.548;2023-06-22T02:41:44;8.05;;;6.50;;
78344;SDS011;67620;51.134;6.548;2023-06-22T02:44:10;11.07;;;6.70;;
78344;SDS011;67620;51.134;6.548;2023-06-22T02:46:36;8.80;;;6.45;;
78344;SDS011;67620;51.134;6.548;2023-06-22T02:49:02;10.30;;;6.63;;
78344;SDS011;67620;51.134;6.548;2023-06-22T02:51:28;8.13;;;6.55;;
78344;SDS011;67620;51.134;6.548;2023-06-22T02:53:55;10.25;;;7.05;;
78344;SDS011;67620;51.134;6.548;2023-06-22T02:56:22;8.35;;;6.35;;
78344;SDS011;67620;51.134;6.548;2023-06-22T02:58:50;9.18;;;7.00;;
78344;SDS011;67620;51.134;6.548;2023-06-22T03:01:16;8.75;;;6.85;;
78344;SDS011;67620;51.134;6.548;2023-06-22T03:03:46;11.50;;;7.03;;
78344;SDS011;67620;51.134;6.548;2023-06-22T03:06:12;8.85;;;6.95;;
78344;SDS011;67620;51.134;6.548;2023-06-22T03:08:38;10.57;;;7.05;;
78344;SDS011;67620;51.134;6.548;2023-06-22T03:11:06;8.98;;;6.90;;
78344;SDS011;67620;51.134;6.548;2023-06-22T03:13:32;9.35;;;6.75;;
78344;SDS011;67620;51.134;6.548;2023-06-22T03:15:58;9.32;;;7.47;;
78344;SDS011;67620;51.134;6.548;2023-06-22T03:18:25;9.63;;;7.28;;
78344;SDS011;67620;51.134;6.548;2023-06-22T03:20:50;12.40;;;7.43;;
78344;SDS011;67620;51.134;6.548;2023-06-22T03:23:16;8.60;;;6.75;;
78344;SDS011;67620;51.134;6.548;2023-06-22T03:25:42;8.73;;;7.57;;
78344;SDS011;67620;51.134;6.548;2023-06-22T03:28:09;10.63;;;8.27;;
78344;SDS011;67620;51.134;6.548;2023-06-22T03:30:35;10.68;;;7.88;;
78344;SDS011;67620;51.134;6.548;2023-06-22T03:33:01;10.45;;;7.65;;
78344;SDS011;67620;51.134;6.548;2023-06-22T03:35:27;9.07;;;7.70;;
78344;SDS011;67620;51.134;6.548;2023-06-22T03:37:53;9.95;;;7.15;;
78344;SDS011;67620;51.134;6.548;2023-06-22T03:40:19;9.88;;;8.30;;
78344;SDS011;67620;51.134;6.548;2023-06-22T03:42:45;12.57;;;8.38;;
78344;SDS011;67620;51.134;6.548;2023-06-22T03:45:11;10.90;;;8.55;;
78344;SDS011;67620;51.134;6.548;2023-06-22T03:47:37;9.25;;;8.07;;
78344;SDS011;67620;51.134;6.548;2023-06-22T03:50:03;12.73;;;8.32;;
78344;SDS011;67620;51.134;6.548;2023-06-22T03:52:30;11.48;;;8.18;;
78344;SDS011;67620;51.134;6.548;2023-06-22T03:54:57;9.35;;;7.88;;
78344;SDS011;67620;51.134;6.548;2023-06-22T03:57:23;12.32;;;8.43;;
78344;SDS011;67620;51.134;6.548;2023-06-22T03:59:49;9.77;;;8.20;;
78344;SDS011;67620;51.134;6.548;2023-06-22T04:02:15;12.88;;;10.05;;
78344;SDS011;67620;51.134;6.548;2023-06-22T04:04:41;15.05;;;10.18;;
78344;SDS011;67620;51.134;6.548;2023-06-22T04:07:07;16.02;;;10.68;;
78344;SDS011;67620;51.134;6.548;2023-06-22T04:09:33;15.00;;;10.43;;
78344;SDS011;67620;51.134;6.548;2023-06-22T04:12:01;14.43;;;10.43;;
78344;SDS011;67620;51.134;6.548;2023-06-22T04:14:27;13.90;;;10.52;;
78344;SDS011;67620;51.134;6.548;2023-06-22T04:16:53;13.05;;;10.93;;
78344;SDS011;67620;51.134;6.548;2023-06-22T04:19:19;17.02;;;11.98;;
78344;SDS011;67620;51.134;6.548;2023-06-22T04:21:44;15.77;;;11.60;;
78344;SDS011;67620;51.134;6.548;2023-06-22T04:24:13;14.35;;;11.82;;
78344;SDS011;67620;51.134;6.548;2023-06-22T04:26:39;15.25;;;12.50;;
78344;SDS011;67620;51.134;6.548;2023-06-22T04:29:06;16.30;;;12.48;;
78344;SDS011;67620;51.134;6.548;2023-06-22T04:31:33;16.58;;;13.27;;
78344;SDS011;67620;51.134;6.548;2023-06-22T04:34:01;15.50;;;13.18;;
78344;SDS011;67620;51.134;6.548;2023-06-22T04:36:34;17.02;;;12.13;;
78344;SDS011;67620;51.134;6.548;2023-06-22T04:39:02;16.00;;;12.52;;
78344;SDS011;67620;51.134;6.548;2023-06-22T04:41:28;14.63;;;12.68;;
78344;SDS011;67620;51.134;6.548;2023-06-22T04:43:54;16.02;;;13.55;;
78344;SDS011;67620;51.134;6.548;2023-06-22T04:46:24;17.13;;;13.38;;
78344;SDS011;67620;51.134;6.548;2023-06-22T04:48:50;17.40;;;12.57;;
78344;SDS011;67620;51.134;6.548;2023-06-22T04:51:16;16.92;;;13.23;;
78344;SDS011;67620;51.134;6.548;2023-06-22T04:53:46;20.08;;;12.52;;
78344;SDS011;67620;51.134;6.548;2023-06-22T04:56:12;14.82;;;12.20;;
78344;SDS011;67620;51.134;6.548;2023-06-22T04:58:40;17.77;;;12.70;;
78344;SDS011;67620;51.134;6.548;2023-06-22T05:01:06;16.27;;;12.27;;
78344;SDS011;67620;51.134;6.548;2023-06-22T05:03:33;15.45;;;13.25;;
78344;SDS011;67620;51.134;6.548;2023-06-22T05:06:01;16.63;;;13.52;;
78344;SDS011;67620;51.134;6.548;2023-06-22T05:08:27;18.90;;;13.60;;
78344;SDS011;67620;51.134;6.548;2023-06-22T05:10:53;15.85;;;13.60;;
78344;SDS011;67620;51.134;6.548;2023-06-22T05:13:19;15.52;;;13.35;;
78344;SDS011;67620;51.134;6.548;2023-06-22T05:15:46;19.75;;;14.25;;
78344;SDS011;67620;51.134;6.548;2023-06-22T05:18:12;15.50;;;12.73;;
78344;SDS011;67620;51.134;6.548;2023-06-22T05:20:38;16.60;;;12.90;;
78344;SDS011;67620;51.134;6.548;2023-06-22T05:23:04;18.45;;;13.70;;
78344;SDS011;67620;51.134;6.548;2023-06-22T05:25:30;15.75;;;13.45;;
78344;SDS011;67620;51.134;6.548;2023-06-22T05:27:57;15.00;;;13.45;;
78344;SDS011;67620;51.134;6.548;2023-06-22T05:30:23;14.90;;;13.35;;
78344;SDS011;67620;51.134;6.548;2023-06-22T05:32:49;18.27;;;13.55;;
78344;SDS011;67620;51.134;6.548;2023-06-22T05:35:17;18.77;;;13.80;;
78344;SDS011;67620;51.134;6.548;2023-06-22T05:37:43;16.75;;;13.57;;
78344;SDS011;67620;51.134;6.548;2023-06-22T05:40:09;17.15;;;13.65;;
78344;SDS011;67620;51.134;6.548;2023-06-22T05:42:35;14.85;;;13.25;;
78344;SDS011;67620;51.134;6.548;2023-06-22T05:45:01;16.30;;;13.13;;
78344;SDS011;67620;51.134;6.548;2023-06-22T05:47:27;20.08;;;14.18;;
78344;SDS011;67620;51.134;6.548;2023-06-22T05:49:53;16.98;;;13.40;;
78344;SDS011;67620;51.134;6.548;2023-06-22T05:52:19;15.32;;;12.88;;
78344;SDS011;67620;51.134;6.548;2023-06-22T05:54:45;16.95;;;13.20;;
78344;SDS011;67620;51.134;6.548;2023-06-22T05:57:11;78.88;;;66.30;;
78344;SDS011;67620;51.134;6.548;2023-06-22T05:59:37;28.75;;;25.65;;
78344;SDS011;67620;51.134;6.548;2023-06-22T06:02:03;19.38;;;15.25;;
78344;SDS011;67620;51.134;6.548;2023-06-22T06:04:29;19.85;;;14.18;;
78344;SDS011;67620;51.134;6.548;2023-06-22T06:06:55;15.48;;;13.88;;
78344;SDS011;67620;51.134;6.548;2023-06-22T06:09:22;17.05;;;13.88;;
78344;SDS011;67620;51.134;6.548;2023-06-22T06:11:48;33.08;;;26.67;;
78344;SDS011;67620;51.134;6.548;2023-06-22T06:14:13;38.72;;;30.00;;
78344;SDS011;67620;51.134;6.548;2023-06-22T06:16:42;43.05;;;34.28;;
78344;SDS011;67620;51.134;6.548;2023-06-22T06:19:07;17.13;;;15.38;;
78344;SDS011;67620;51.134;6.548;2023-06-22T06:21:33;16.30;;;14.55;;
78344;SDS011;67620;51.134;6.548;2023-06-22T06:23:59;16.48;;;13.88;;
78344;SDS011;67620;51.134;6.548;2023-06-22T06:26:25;18.92;;;14.40;;
78344;SDS011;67620;51.134;6.548;2023-06-22T06:28:57;15.57;;;13.93;;
78344;SDS011;67620;51.134;6.548;2023-06-22T06:31:23;17.25;;;13.80;;
78344;SDS011;67620;51.134;6.548;2023-06-22T06:33:49;21.40;;;14.65;;
78344;SDS011;67620;51.134;6.548;2023-06-22T06:36:15;16.63;;;14.80;;
78344;SDS011;67620;51.134;6.548;2023-06-22T06:38:41;16.38;;;14.57;;
78344;SDS011;67620;51.134;6.548;2023-06-22T06:41:07;18.30;;;14.93;;
78344;SDS011;67620;51.134;6.548;2023-06-22T06:43:33;18.60;;;15.23;;
78344;SDS011;67620;51.134;6.548;2023-06-22T06:45:59;20.00;;;15.75;;
78344;SDS011;67620;51.134;6.548;2023-06-22T06:48:25;18.17;;;14.63;;
78344;SDS011;67620;51.134;6.548;2023-06-22T06:50:51;19.83;;;16.15;;
78344;SDS011;67620;51.134;6.548;2023-06-22T06:53:17;18.08;;;14.90;;
78344;SDS011;67620;51.134;6.548;2023-06-22T06:55:43;45.08;;;33.08;;
78344;SDS011;67620;51.134;6.548;2023-06-22T06:58:10;25.88;;;21.52;;
78344;SDS011;67620;51.134;6.548;2023-06-22T07:00:38;21.33;;;15.98;;
78344;SDS011;67620;51.134;6.548;2023-06-22T07:03:04;19.70;;;16.15;;
78344;SDS011;67620;51.134;6.548;2023-06-22T07:05:31;18.60;;;15.18;;
78344;SDS011;67620;51.134;6.548;2023-06-22T07:07:57;17.92;;;15.93;;
78344;SDS011;67620;51.134;6.548;2023-06-22T07:10:24;20.60;;;16.55;;
78344;SDS011;67620;51.134;6.548;2023-06-22T07:12:50;18.17;;;16.13;;
78344;SDS011;67620;51.134;6.548;2023-06-22T07:15:16;19.33;;;16.08;;
78344;SDS011;67620;51.134;6.548;2023-06-22T07:17:42;18.77;;;15.68;;
78344;SDS011;67620;51.134;6.548;2023-06-22T07:20:08;19.13;;;16.25;;
78344;SDS011;67620;51.134;6.548;2023-06-22T07:22:35;18.90;;;15.68;;
78344;SDS011;67620;51.134;6.548;2023-06-22T07:25:01;17.35;;;14.93;;
78344;SDS011;67620;51.134;6.548;2023-06-22T07:27:33;17.83;;;15.48;;
78344;SDS011;67620;51.134;6.548;2023-06-22T07:30:01;21.90;;;15.48;;
78344;SDS011;67620;51.134;6.548;2023-06-22T07:32:27;16.98;;;15.18;;
78344;SDS011;67620;51.134;6.548;2023-06-22T07:34:53;17.50;;;15.68;;
78344;SDS011;67620;51.134;6.548;2023-06-22T07:37:21;21.95;;;18.50;;
78344;SDS011;67620;51.134;6.548;2023-06-22T07:39:47;29.90;;;24.05;;
78344;SDS011;67620;51.134;6.548;2023-06-22T07:42:13;32.33;;;28.52;;
78344;SDS011;67620;51.134;6.548;2023-06-22T07:44:43;17.90;;;15.95;;
78344;SDS011;67620;51.134;6.548;2023-06-22T07:47:09;19.25;;;16.50;;
78344;SDS011;67620;51.134;6.548;2023-06-22T07:49:35;18.98;;;15.85;;
78344;SDS011;67620;51.134;6.548;2023-06-22T07:52:01;17.77;;;14.75;;
78344;SDS011;67620;51.134;6.548;2023-06-22T07:54:27;19.23;;;15.35;;
78344;SDS011;67620;51.134;6.548;2023-06-22T07:56:53;19.95;;;16.23;;
78344;SDS011;67620;51.134;6.548;2023-06-22T07:59:19;18.25;;;15.18;;
78344;SDS011;67620;51.134;6.548;2023-06-22T08:01:45;17.92;;;15.30;;
78344;SDS011;67620;51.134;6.548;2023-06-22T08:04:14;18.13;;;15.27;;
78344;SDS011;67620;51.134;6.548;2023-06-22T08:06:39;18.48;;;15.75;;
78344;SDS011;67620;51.134;6.548;2023-06-22T08:09:05;20.67;;;15.70;;
78344;SDS011;67620;51.134;6.548;2023-06-22T08:11:31;16.55;;;14.88;;
78344;SDS011;67620;51.134;6.548;2023-06-22T08:13:57;18.77;;;15.30;;
78344;SDS011;67620;51.134;6.548;2023-06-22T08:16:23;17.15;;;15.10;;
78344;SDS011;67620;51.134;6.548;2023-06-22T08:18:49;18.35;;;15.20;;
78344;SDS011;67620;51.134;6.548;2023-06-22T08:21:15;18.80;;;14.95;;
78344;SDS011;67620;51.134;6.548;2023-06-22T08:23:41;16.95;;;15.20;;
78344;SDS011;67620;51.134;6.548;2023-06-22T08:26:07;17.23;;;14.93;;
78344;SDS011;67620;51.134;6.548;2023-06-22T08:28:33;19.27;;;14.52;;
78344;SDS011;67620;51.134;6.548;2023-06-22T08:30:59;17.30;;;13.55;;
78344;SDS011;67620;51.134;6.548;2023-06-22T08:33:26;15.95;;;12.82;;
78344;SDS011;67620;51.134;6.548;2023-06-22T08:35:53;53.80;;;48.00;;
78344;SDS011;67620;51.134;6.548;2023-06-22T08:38:19;25.20;;;16.85;;
78344;SDS011;67620;51.134;6.548;2023-06-22T08:40:45;16.52;;;11.00;;
78344;SDS011;67620;51.134;6.548;2023-06-22T08:43:11;14.13;;;10.68;;
78344;SDS011;67620;51.134;6.548;2023-06-22T08:45:37;13.05;;;10.90;;
78344;SDS011;67620;51.134;6.548;2023-06-22T08:48:03;11.13;;;9.93;;
78344;SDS011;67620;51.134;6.548;2023-06-22T08:50:29;13.70;;;9.95;;
78344;SDS011;67620;51.134;6.548;2023-06-22T08:52:54;12.20;;;9.70;;
78344;SDS011;67620;51.134;6.548;2023-06-22T08:55:20;11.10;;;8.60;;
78344;SDS011;67620;51.134;6.548;2023-06-22T08:57:46;11.30;;;9.02;;
78344;SDS011;67620;51.134;6.548;2023-06-22T09:00:12;10.43;;;8.68;;
78344;SDS011;67620;51.134;6.548;2023-06-22T09:02:42;9.95;;;7.97;;
78344;SDS011;67620;51.134;6.548;2023-06-22T09:05:08;8.02;;;7.13;;
78344;SDS011;67620;51.134;6.548;2023-06-22T09:07:34;9.15;;;7.07;;
78344;SDS011;67620;51.134;6.548;2023-06-22T09:10:00;8.63;;;6.75;;
78344;SDS011;67620;51.134;6.548;2023-06-22T09:12:26;9.07;;;7.82;;
78344;SDS011;67620;51.134;6.548;2023-06-22T09:14:55;11.00;;;8.15;;
78344;SDS011;67620;51.134;6.548;2023-06-22T09:17:21;11.95;;;7.60;;
78344;SDS011;67620;51.134;6.548;2023-06-22T09:19:47;8.27;;;6.68;;
78344;SDS011;67620;51.134;6.548;2023-06-22T09:22:14;8.27;;;7.13;;
78344;SDS011;67620;51.134;6.548;2023-06-22T09:24:40;8.13;;;7.00;;
78344;SDS011;67620;51.134;6.548;2023-06-22T09:27:06;8.77;;;5.93;;
78344;SDS011;67620;51.134;6.548;2023-06-22T09:29:32;8.05;;;6.38;;
78344;SDS011;67620;51.134;6.548;2023-06-22T09:32:01;7.95;;;6.65;;
78344;SDS011;67620;51.134;6.548;2023-06-22T09:34:27;9.68;;;7.03;;
78344;SDS011;67620;51.134;6.548;2023-06-22T09:36:53;9.02;;;7.97;;
78344;SDS011;67620;51.134;6.548;2023-06-22T09:39:20;8.13;;;6.95;;
78344;SDS011;67620;51.134;6.548;2023-06-22T09:41:46;8.98;;;6.78;;
78344;SDS011;67620;51.134;6.548;2023-06-22T09:44:11;9.38;;;6.03;;
78344;SDS011;67620;51.134;6.548;2023-06-22T09:46:37;8.27;;;6.45;;
78344;SDS011;67620;51.134;6.548;2023-06-22T09:49:03;9.70;;;6.97;;
78344;SDS011;67620;51.134;6.548;2023-06-22T09:51:29;9.90;;;7.07;;
78344;SDS011;67620;51.134;6.548;2023-06-22T09:53:55;10.02;;;8.25;;
78344;SDS011;67620;51.134;6.548;2023-06-22T09:56:21;10.40;;;7.70;;
78344;SDS011;67620;51.134;6.548;2023-06-22T09:58:47;8.50;;;7.07;;
78344;SDS011;67620;51.134;6.548;2023-06-22T10:01:15;11.05;;;7.43;;
78344;SDS011;67620;51.134;6.548;2023-06-22T10:03:41;9.10;;;7.57;;
78344;SDS011;67620;51.134;6.548;2023-06-22T10:06:07;8.18;;;7.15;;
78344;SDS011;67620;51.134;6.548;2023-06-22T10:08:34;9.52;;;6.78;;
78344;SDS011;67620;51.134;6.548;2023-06-22T10:11:00;8.02;;;6.72;;
78344;SDS011;67620;51.134;6.548;2023-06-22T10:13:26;8.88;;;7.80;;
78344;SDS011;67620;51.134;6.548;2023-06-22T10:15:52;9.63;;;7.53;;
78344;SDS011;67620;51.134;6.548;2023-06-22T10:18:18;10.18;;;7.47;;
78344;SDS011;67620;51.134;6.548;2023-06-22T10:20:46;8.57;;;7.13;;
78344;SDS011;67620;51.134;6.548;2023-06-22T10:23:12;8.93;;;7.88;;
78344;SDS011;67620;51.134;6.548;2023-06-22T10:25:38;8.35;;;7.30;;
78344;SDS011;67620;51.134;6.548;2023-06-22T10:28:04;10.20;;;7.65;;
78344;SDS011;67620;51.134;6.548;2023-06-22T10:30:30;10.65;;;7.30;;
78344;SDS011;67620;51.134;6.548;2023-06-22T10:32:56;7.82;;;6.78;;
78344;SDS011;67620;51.134;6.548;2023-06-22T10:35:22;9.52;;;7.93;;
78344;SDS011;67620;51.134;6.548;2023-06-22T10:37:48;11.63;;;8.95;;
78344;SDS011;67620;51.134;6.548;2023-06-22T10:40:16;11.32;;;9.77;;
78344;SDS011;67620;51.134;6.548;2023-06-22T10:42:43;11.60;;;10.30;;
78344;SDS011;67620;51.134;6.548;2023-06-22T10:45:09;11.57;;;10.25;;
78344;SDS011;67620;51.134;6.548;2023-06-22T10:47:35;25.30;;;22.80;;
78344;SDS011;67620;51.134;6.548;2023-06-22T10:50:02;18.98;;;16.08;;
78344;SDS011;67620;51.134;6.548;2023-06-22T10:52:28;13.18;;;10.32;;
78344;SDS011;67620;51.134;6.548;2023-06-22T10:54:54;11.02;;;9.75;;
78344;SDS011;67620;51.134;6.548;2023-06-22T10:57:21;13.82;;;11.13;;
78344;SDS011;67620;51.134;6.548;2023-06-22T10:59:47;13.35;;;11.02;;
78344;SDS011;67620;51.134;6.548;2023-06-22T11:02:13;12.98;;;11.13;;
78344;SDS011;67620;51.134;6.548;2023-06-22T11:04:39;12.05;;;10.52;;
78344;SDS011;67620;51.134;6.548;2023-06-22T11:07:05;15.75;;;10.68;;
78344;SDS011;67620;51.134;6.548;2023-06-22T11:09:31;12.15;;;10.38;;
78344;SDS011;67620;51.134;6.548;2023-06-22T11:11:57;14.25;;;12.00;;
78344;SDS011;67620;51.134;6.548;2023-06-22T11:14:24;18.50;;;12.75;;
78344;SDS011;67620;51.134;6.548;2023-06-22T11:16:50;19.00;;;13.85;;
78344;SDS011;67620;51.134;6.548;2023-06-22T11:19:16;14.45;;;12.95;;
78344;SDS011;67620;51.134;6.548;2023-06-22T11:21:42;15.73;;;13.57;;
78344;SDS011;67620;51.134;6.548;2023-06-22T11:24:08;16.98;;;13.68;;
78344;SDS011;67620;51.134;6.548;2023-06-22T11:26:34;15.65;;;13.30;;
78344;SDS011;67620;51.134;6.548;2023-06-22T11:29:00;18.55;;;14.85;;
78344;SDS011;67620;51.134;6.548;2023-06-22T11:31:30;16.67;;;15.07;;
78344;SDS011;67620;51.134;6.548;2023-06-22T11:33:56;16.67;;;14.95;;
78344;SDS011;67620;51.134;6.548;2023-06-22T11:36:22;18.02;;;14.90;;
78344;SDS011;67620;51.134;6.548;2023-06-22T11:38:48;19.95;;;16.02;;
78344;SDS011;67620;51.134;6.548;2023-06-22T11:41:14;17.67;;;15.50;;
78344;SDS011;67620;51.134;6.548;2023-06-22T11:43:40;19.10;;;16.30;;
78344;SDS011;67620;51.134;6.548;2023-06-22T11:46:06;18.27;;;15.50;;
78344;SDS011;67620;51.134;6.548;2023-06-22T11:48:31;20.23;;;15.23;;
78344;SDS011;67620;51.134;6.548;2023-06-22T11:50:57;20.23;;;17.20;;
78344;SDS011;67620;51.134;6.548;2023-06-22T11:53:24;17.35;;;15.48;;
78344;SDS011;67620;51.134;6.548;2023-06-22T11:55:50;22.38;;;17.02;;
78344;SDS011;67620;51.134;6.548;2023-06-22T11:58:17;18.02;;;16.17;;
78344;SDS011;67620;51.134;6.548;2023-06-22T12:00:43;21.52;;;18.60;;
78344;SDS011;67620;51.134;6.548;2023-06-22T12:03:10;24.25;;;18.63;;
78344;SDS011;67620;51.134;6.548;2023-06-22T12:05:36;24.90;;;19.98;;
78344;SDS011;67620;51.134;6.548;2023-06-22T12:08:02;21.85;;;19.05;;
78344;SDS011;67620;51.134;6.548;2023-06-22T12:10:28;22.10;;;18.92;;
78344;SDS011;67620;51.134;6.548;2023-06-22T12:12:54;25.35;;;21.55;;
78344;SDS011;67620;51.134;6.548;2023-06-22T12:15:22;23.30;;;20.88;;
78344;SDS011;67620;51.134;6.548;2023-06-22T12:17:48;24.00;;;21.17;;
78344;SDS011;67620;51.134;6.548;2023-06-22T12:20:14;23.05;;;20.65;;
78344;SDS011;67620;51.134;6.548;2023-06-22T12:22:40;22.98;;;20.15;;
78344;SDS011;67620;51.134;6.548;2023-06-22T12:25:07;23.60;;;21.10;;
78344;SDS011;67620;51.134;6.548;2023-06-22T12:27:33;23.95;;;21.27;;
78344;SDS011;67620;51.134;6.548;2023-06-22T12:29:59;27.42;;;23.33;;
78344;SDS011;67620;51.134;6.548;2023-06-22T12:32:25;25.63;;;22.65;;
78344;SDS011;67620;51.134;6.548;2023-06-22T12:34:51;25.17;;;21.52;;
78344;SDS011;67620;51.134;6.548;2023-06-22T12:37:17;26.35;;;21.55;;
78344;SDS011;67620;51.134;6.548;2023-06-22T12:39:44;28.15;;;23.63;;
78344;SDS011;67620;51.134;6.548;2023-06-22T12:42:10;24.20;;;21.58;;
78344;SDS011;67620;51.134;6.548;2023-06-22T12:44:40;23.80;;;20.98;;
78344;SDS011;67620;51.134;6.548;2023-06-22T12:47:06;24.77;;;22.10;;
78344;SDS011;67620;51.134;6.548;2023-06-22T12:49:33;26.83;;;22.50;;
78344;SDS011;67620;51.134;6.548;2023-06-22T12:51:59;30.02;;;25.23;;
78344;SDS011;67620;51.134;6.548;2023-06-22T12:54:25;29.42;;;25.33;;
78344;SDS011;67620;51.134;6.548;2023-06-22T12:56:51;26.80;;;22.33;;
78344;SDS011;67620;51.134;6.548;2023-06-22T12:59:17;27.02;;;24.20;;
78344;SDS011;67620;51.134;6.548;2023-06-22T13:01:43;25.95;;;23.17;;
78344;SDS011;67620;51.134;6.548;2023-06-22T13:04:11;28.23;;;23.80;;
78344;SDS011;67620;51.134;6.548;2023-06-22T13:06:40;26.35;;;23.33;;
78344;SDS011;67620;51.134;6.548;2023-06-22T13:09:06;26.75;;;22.80;;
78344;SDS011;67620;51.134;6.548;2023-06-22T13:11:31;26.27;;;23.48;;
78344;SDS011;67620;51.134;6.548;2023-06-22T13:13:57;27.00;;;24.05;;
78344;SDS011;67620;51.134;6.548;2023-06-22T13:16:23;28.88;;;24.25;;
78344;SDS011;67620;51.134;6.548;2023-06-22T13:18:49;29.67;;;24.48;;
78344;SDS011;67620;51.134;6.548;2023-06-22T13:21:16;27.42;;;23.83;;
78344;SDS011;67620;51.134;6.548;2023-06-22T13:23:42;27.17;;;24.17;;
78344;SDS011;67620;51.134;6.548;2023-06-22T13:26:08;31.35;;;25.02;;
78344;SDS011;67620;51.134;6.548;2023-06-22T13:28:34;29.42;;;26.27;;
78344;SDS011;67620;51.134;6.548;2023-06-22T13:31:00;29.63;;;25.30;;
78344;SDS011;67620;51.134;6.548;2023-06-22T13:33:26;30.83;;;26.73;;
78344;SDS011;67620;51.134;6.548;2023-06-22T13:35:52;30.17;;;26.67;;
78344;SDS011;67620;51.134;6.548;2023-06-22T13:38:18;30.40;;;26.25;;
78344;SDS011;67620;51.134;6.548;2023-06-22T13:40:44;32.80;;;27.05;;
78344;SDS011;67620;51.134;6.548;2023-06-22T13:43:10;28.70;;;25.63;;
78344;SDS011;67620;51.134;6.548;2023-06-22T13:45:36;30.00;;;26.33;;
78344;SDS011;67620;51.134;6.548;2023-06-22T13:48:02;29.15;;;25.88;;
78344;SDS011;67620;51.134;6.548;2023-06-22T13:50:28;28.52;;;25.00;;
78344;SDS011;67620;51.134;6.548;2023-06-22T13:52:54;31.52;;;26.17;;
78344;SDS011;67620;51.134;6.548;2023-06-22T13:55:21;29.00;;;25.08;;
78344;SDS011;67620;51.134;6.548;2023-06-22T13:57:48;30.63;;;26.10;;
78344;SDS011;67620;51.134;6.548;2023-06-22T14:00:14;31.85;;;27.30;;
78344;SDS011;67620;51.134;6.548;2023-06-22T14:02:41;30.83;;;25.80;;
78344;SDS011;67620;51.134;6.548;2023-06-22T14:05:07;32.28;;;28.40;;
78344;SDS011;67620;51.134;6.548;2023-06-22T14:07:33;30.65;;;25.52;;
78344;SDS011;67620;51.134;6.548;2023-06-22T14:09:59;31.77;;;26.30;;
78344;SDS011;67620;51.134;6.548;2023-06-22T14:12:25;32.78;;;28.27;;
78344;SDS011;67620;51.134;6.548;2023-06-22T14:14:51;30.70;;;26.27;;
78344;SDS011;67620;51.134;6.548;2023-06-22T14:17:18;35.33;;;27.77;;
78344;SDS011;67620;51.134;6.548;2023-06-22T14:19:49;30.35;;;25.42;;
78344;SDS011;67620;51.134;6.548;2023-06-22T14:22:17;29.65;;;26.05;;
78344;SDS011;67620;51.134;6.548;2023-06-22T14:24:42;28.58;;;24.98;;
78344;SDS011;67620;51.134;6.548;2023-06-22T14:27:08;28.05;;;24.92;;
78344;SDS011;67620;51.134;6.548;2023-06-22T14:29:35;31.25;;;24.50;;
78344;SDS011;67620;51.134;6.548;2023-06-22T14:32:01;30.27;;;25.77;;
78344;SDS011;67620;51.134;6.548;2023-06-22T14:34:27;29.52;;;26.30;;
78344;SDS011;67620;51.134;6.548;2023-06-22T14:36:53;52.63;;;46.15;;
78344;SDS011;67620;51.134;6.548;2023-06-22T14:39:18;47.75;;;39.47;;